Flight Track Log - Related Links

Times and Time Zones

All times are in EDT time to prevent confusion due to time zone crossing. See the N88JA flight status page for this flight to view local times or setup timezone preferences in your user account.

Time Position Orientation Groundspeed Altitude Reporting Facility
EDT Latitude Longitude Course Direction KTS MPH feet Rate Location/Type
Sat 04:32:50 PM 39.5856 -84.2272 219° Southwest 65 75 1,300  Level Indianapolis Center
Sat 04:33:45 PM 39.5694 -84.2439 219° Southwest 81 93 2,000 680 Climbing Indianapolis Center
Sat 04:34:27 PM 39.5706 -84.2650 274° West 123 142 2,400 627 Climbing Indianapolis Center
Sat 04:34:52 PM 39.5731 -84.2797 282° West 106 122 2,700 774 Climbing Indianapolis Center
Sat 04:35:29 PM 39.5867 -84.2892 332° Northwest 91 105 3,200 889 Climbing Indianapolis Center
Sat 04:35:46 PM 39.5950 -84.2933 339° North 96 110 3,500 787 Climbing Indianapolis Center
Sat 04:36:30 PM 39.6117 -84.3019 338° Northwest 94 108 4,000 590 Climbing Indianapolis Center
Sat 04:36:47 PM 39.6192 -84.3047 344° North 93 107 4,100 197 Climbing Indianapolis Center
Sat 04:37:31 PM 39.6394 -84.3167 336° Northwest 98 113 4,200  Climbing Indianapolis Center
Sat 04:37:48 PM 39.6514 -84.3225 339° North 137 158 4,100 -194 Descending Indianapolis Center
Sat 04:38:33 PM 39.6783 -84.3289 350° North 124 143 4,000 -90 Descending Indianapolis Center
Sat 04:38:55 PM 39.6922 -84.3361 338° Northwest 135 155 4,000 98 Level Indianapolis Center
Sat 04:39:34 PM 39.7136 -84.3425 347° North 132 152 4,100 -109 Climbing Indianapolis Center
Sat 04:39:50 PM 39.7247 -84.3489 336° Northwest 128 147 3,900 -97 Descending Indianapolis Center
Sat 04:40:36 PM 39.7469 -84.3514 355° North 128 147 4,000 112 Climbing Indianapolis Center
Sat 04:41:37 PM 39.7803 -84.3556 355° North 122 140 4,100 49 Climbing Indianapolis Center
Sat 04:42:38 PM 39.8147 -84.3594 355° North 122 140 4,100  Level Indianapolis Center
Sat 04:43:53 PM 39.8614 -84.3672 353° North 129 148 4,100 49 Level Indianapolis Center
Sat 04:44:41 PM 39.8858 -84.3703 355° North 126 145 4,200  Climbing Indianapolis Center
Sat 04:45:00 PM 39.9006 -84.3753 345° North 127 146 4,100 -194 Descending Indianapolis Center
Sat 04:45:43 PM 39.9217 -84.3792 352° North 128 147 4,000  Descending Indianapolis Center
Sat 04:46:01 PM 39.9375 -84.3856 343° North 131 151 4,100 98 Climbing Indianapolis Center
Sat 04:46:44 PM 39.9636 -84.3878 356° North 128 147 4,100  Level Indianapolis Center
Sat 04:47:01 PM 39.9731 -84.3878 360° North 126 145 4,100 97 Level Indianapolis Center
Sat 04:47:46 PM 39.9986 -84.3925 352° North 127 146 4,200  Climbing Indianapolis Center
Sat 04:48:47 PM 40.0244 -84.3689 35° Northeast 118 136 4,100 -78 Descending Indianapolis Center
Sat 04:49:03 PM 40.0314 -84.3656 20° North 110 127 4,100  Level Indianapolis Center
Sat 04:49:48 PM 40.0525 -84.3511 28° Northeast 114 131 4,100  Level Indianapolis Center
Sat 04:50:10 PM 40.0625 -84.3425 33° Northeast 112 129 4,100 -194 Level Indianapolis Center
Sat 04:50:50 PM 40.0772 -84.3242 44° Northeast 113 130 3,900 -393 Descending Indianapolis Center
Sat 04:51:11 PM 40.0839 -84.3128 53° Northeast 113 130 3,700 -689 Descending Indianapolis Center
Sat 04:51:51 PM 40.0983 -84.2936 45° Northeast 113 130 3,200 -689 Descending Indianapolis Center
Sat 04:52:12 PM 40.1050 -84.2828 51° Northeast 109 125 3,000 -197 Descending Indianapolis Center
Sat 04:52:52 PM 40.1150 -84.2686 47° Northeast 112 129 3,000 59 Level Indianapolis Center
Sat 04:53:54 PM 40.1392 -84.2403 42° Northeast 109 125 3,100 49 Climbing Indianapolis Center
Sat 04:54:55 PM 40.1603 -84.2089 49° Northeast 113 130 3,100 -49 Level Indianapolis Center
Sat 04:55:56 PM 40.1781 -84.1747 56° Northeast 112 129 3,000 -49 Descending Indianapolis Center
Sat 04:56:58 PM 40.2092 -84.1556 25° Northeast 110 127 3,000 49 Level Indianapolis Center
Sat 04:57:59 PM 40.2217 -84.1300 57° Northeast 103 119 3,100  Climbing Indianapolis Center
Sat 04:59:11 PM 40.2436 -84.0908 54° Northeast 107 123 3,000  Descending Indianapolis Center
Sat 05:00:02 PM 40.2664 -84.0794 21° North 115 132 3,100 54 Climbing Indianapolis Center
Sat 05:01:03 PM 40.2947 -84.1014 329° Northwest 128 147 3,100 72 Level Indianapolis Center
Sat 05:01:25 PM 40.3064 -84.1211 308° West 139 160 3,200 97 Climbing Indianapolis Center
Sat 05:02:05 PM 40.3239 -84.1439 315° West 133 153 3,200 109 Level Indianapolis Center
Sat 05:02:20 PM 40.3317 -84.1464 346° North 135 155 3,300 -237 Climbing Indianapolis Center
Sat 05:03:21 PM 40.3700 -84.1653 339° North 138 159 2,900 -224 Descending Indianapolis Center
Sat 05:04:07 PM 40.3922 -84.1822 330° Northwest 134 154 2,900 98 Level Indianapolis Center
Sat 05:04:22 PM 40.3975 -84.1881 320° Northwest 122 140 3,000 -97 Climbing Indianapolis Center
Sat 05:05:09 PM 40.4217 -84.2014 337° Northwest 124 143 2,800 -222 Descending Indianapolis Center
Sat 05:06:10 PM 40.4503 -84.2281 325° Northwest 123 142 2,600 -150 Descending Indianapolis Center
Sat 05:06:29 PM 40.4581 -84.2428 305° West 121 139 2,600 97 Level Indianapolis Center
Sat 05:07:12 PM 40.4764 -84.2531 337° Northwest 123 142 2,700 -1,082 Climbing Indianapolis Center
Sat 05:07:30 PM 40.4833 -84.2681 301° West 126 145 1,500 -1,082 Descending Indianapolis Center
Sat 05:08:13 PM 40.5028 -84.2872 323° Northwest 83 96 1,600 61 Climbing Indianapolis Center
Sat 05:10:00 PM 40.4471 -84.2806 175° South  Level FlightAware Approximate
Sat 05:12:23 PM 40.4978 -84.2728 175° South 84 97 1,800  Level Indianapolis Center
Sat 05:13:30 PM 40.4789 -84.2731 181° South 79 91 2,600 595 Climbing Indianapolis Center
Sat 05:14:24 PM 40.4625 -84.2956 226° Southwest 99 114 3,000 275 Climbing Indianapolis Center
Sat 05:15:19 PM 40.4394 -84.3225 222° Southwest 120 138 3,100 85 Climbing Indianapolis Center
Sat 05:15:35 PM 40.4325 -84.3317 225° Southwest 146 168 3,100 -98 Level Indianapolis Center
Sat 05:16:20 PM 40.4139 -84.3519 220° Southwest 128 147 3,000 -97 Descending Indianapolis Center
Sat 05:16:37 PM 40.4111 -84.3561 229° Southwest 120 138 3,000  Level Indianapolis Center
Sat 05:17:00 PM 40.2284 -84.2550 175° South  Level FlightAware Approximate
Sat 05:17:27 PM 40.3858 -84.3892 225° Southwest 124 143 3,000  Level Indianapolis Center
Sat 05:18:28 PM 40.3622 -84.4217 226° Southwest 120 138 3,100  Climbing Indianapolis Center
Sat 05:19:22 PM 40.3411 -84.4489 225° Southwest 120 138 3,000  Descending Indianapolis Center
Sat 05:20:35 PM 40.3108 -84.4886 225° Southwest 125 144 3,100 45 Climbing Indianapolis Center
Sat 05:21:36 PM 40.2808 -84.4953 190° South 109 125 3,100 -49 Level Indianapolis Center
Sat 05:22:37 PM 40.2492 -84.4992 185° South 111 128 3,000  Descending Indianapolis Center
Sat 05:23:38 PM 40.2194 -84.5033 186° South 109 125 3,100  Climbing Indianapolis Center
Sat 05:23:59 PM 40.2078 -84.5064 191° South 124 143 3,000  Descending Indianapolis Center
Sat 05:24:45 PM 40.1853 -84.5122 191° South 109 125 3,100 -98 Climbing Indianapolis Center
Sat 05:25:00 PM 40.1833 -84.5106 147° Southeast 106 122 2,900 -109 Descending Indianapolis Center
Sat 05:25:40 PM 40.1558 -84.5136 185° South 108 124 3,000  Climbing Indianapolis Center
Sat 05:26:02 PM 40.1489 -84.5144 185° South 108 124 2,900  Descending Indianapolis Center
Sat 05:26:41 PM 40.1258 -84.5206 191° South 110 127 3,000  Climbing Indianapolis Center
Sat 05:27:03 PM 40.1169 -84.5231 192° South 109 125 2,900  Descending Indianapolis Center
Sat 05:27:36 PM 40.0981 -84.5275 190° South 110 127 3,000  Climbing Indianapolis Center
Sat 05:28:05 PM 40.0869 -84.5292 187° South 109 125 2,900 98 Descending Indianapolis Center
Sat 05:28:37 PM 40.0683 -84.5317 186° South 107 123 3,100  Climbing Indianapolis Center
Sat 05:29:07 PM 40.0572 -84.5353 194° South 108 124 2,900 -100 Descending Indianapolis Center
Sat 05:29:37 PM 40.0383 -84.5383 187° South 109 125 3,000 98 Climbing Indianapolis Center
Sat 05:30:08 PM 40.0264 -84.5411 190° South 109 125 3,000 98 Level Indianapolis Center
Sat 05:30:38 PM 40.0086 -84.5453 190° South 111 128 3,100 -97 Climbing Indianapolis Center
Sat 05:31:10 PM 39.9961 -84.5492 193° South 110 127 2,900 -109 Descending Indianapolis Center
Sat 05:31:33 PM 39.9808 -84.5494 181° South 106 122 3,000  Climbing Indianapolis Center
Sat 05:32:11 PM 39.9661 -84.5525 189° South 109 125 2,900  Descending Indianapolis Center
Sat 05:32:34 PM 39.9511 -84.5564 191° South 110 127 3,000  Climbing Indianapolis Center
Sat 05:33:13 PM 39.9347 -84.5578 184° South 109 125 2,900 98 Descending Indianapolis Center
Sat 05:33:35 PM 39.9228 -84.5417 134° Southeast 99 114 3,100 202 Climbing Indianapolis Center
Sat 05:34:42 PM 39.8925 -84.5292 162° South 107 123 3,200 -47 Climbing Indianapolis Center
Sat 05:35:42 PM 39.8667 -84.5119 153° Southeast 107 123 3,000 -50 Descending Indianapolis Center
Sat 05:36:43 PM 39.8386 -84.4947 155° Southeast 110 127 3,100  Climbing Indianapolis Center
Sat 05:37:50 PM 39.8042 -84.4792 161° South 113 130 3,000 -47 Descending Indianapolis Center
Sat 05:38:51 PM 39.8028 -84.4461 93° East 102 117 3,000  Level Indianapolis Center
Sat 05:39:46 PM 39.8072 -84.4169 79° East 96 110 3,000 -68 Level Indianapolis Center
Sat 05:41:48 PM 39.8397 -84.3506 57° Northeast 109 125 2,800 -197 Descending Indianapolis Center
Sat 05:42:49 PM 39.8589 -84.3206 50° Northeast 103 119 2,400 -443 Descending Indianapolis Center
Sat 05:43:50 PM 39.8694 -84.2947 62° Northeast 77 89 1,900 -397 Descending Indianapolis Center
Sat 05:44:50 PM 39.8817 -84.2719 55° Northeast 73 84 1,600 -166 Descending Indianapolis Center
Sat 05:46:15 PM 39.9011 -84.2364 55° Northeast 83 96 1,500 148 Descending Indianapolis Center
Sat 05:46:52 PM 39.9086 -84.2239 52° Northeast 66 76 1,900 796 Climbing Indianapolis Center
Sat 05:47:53 PM 39.9164 -84.2031 64° Northeast 61 70 2,800 672 Climbing Indianapolis Center
Sat 05:48:48 PM 39.9225 -84.1794 71° East 86 99 3,200 98 Climbing Indianapolis Center
Sat 05:49:55 PM 39.9008 -84.1631 150° Southeast 108 124 3,000 -99 Descending Indianapolis Center
Sat 05:50:49 PM 39.8761 -84.1569 169° South 96 110 3,000  Level Indianapolis Center
Sat 05:51:56 PM 39.8472 -84.1506 170° South 97 112 3,000  Level Indianapolis Center
Sat 05:52:51 PM 39.8242 -84.1503 179° South 95 109 3,000 49 Level Indianapolis Center
Sat 05:53:58 PM 39.7933 -84.1433 170° South 91 105 3,100  Climbing Indianapolis Center
Sat 05:55:05 PM 39.7642 -84.1394 174° South 101 116 3,000 -94 Descending Indianapolis Center
Sat 05:56:06 PM 39.7364 -84.1467 191° South 112 129 2,900 -142 Descending Indianapolis Center
Sat 05:57:12 PM 39.7058 -84.1617 201° Southwest 100 115 2,700 -182 Descending Indianapolis Center

Login

Don't have an account? Register now (free) for customized features, flight alerts, and more!